Time;durP1;ratioP1;P1;durP2;ratioP2;P2;SDS_P1;SDS_P2;PMS_P1;PMS_P2;Temp;Humidity;BMP_temperature;BMP_pressure;BME280_temperature;BME280_humidity;BME280_pressure;Samples;Min_cycle;Max_cycle;Signal;HPM_P1;HPM_P2
2024/03/08 00:00:12;;;;;;;4.10;2.63;;;9.10;99.90;;;;;;4994524;28;20422;-72
2024/03/08 00:02:41;;;;;;;3.07;2.40;;;9.10;99.90;;;;;;4995756;28;20042;-72
2024/03/08 00:05:08;;;;;;;3.13;1.93;;;9.10;99.90;;;;;;4995796;28;20561;-71
2024/03/08 00:07:35;;;;;;;2.37;1.67;;;9.10;99.90;;;;;;4996092;28;20041;-71
2024/03/08 00:10:02;;;;;;;2.07;1.50;;;9.10;99.90;;;;;;5013523;28;20510;-71
2024/03/08 00:12:28;;;;;;;2.30;1.63;;;9.10;99.90;;;;;;5015015;28;20061;-71
2024/03/08 00:14:54;;;;;;;2.20;1.60;;;9.10;99.90;;;;;;5015045;28;20121;-71
2024/03/08 00:17:23;;;;;;;2.27;1.63;;;9.10;99.90;;;;;;5014818;28;20471;-70
2024/03/08 00:19:49;;;;;;;3.50;1.80;;;9.10;99.90;;;;;;5014700;28;20048;-71
2024/03/08 00:22:16;;;;;;;2.60;1.67;;;9.10;99.90;;;;;;5014866;28;20029;-70
2024/03/08 00:24:42;;;;;;;3.20;1.90;;;9.10;99.90;;;;;;5015106;28;20504;-71
2024/03/08 00:27:08;;;;;;;2.37;1.90;;;9.10;99.90;;;;;;5014764;28;20109;-71
2024/03/08 00:29:35;;;;;;;1.90;1.57;;;9.10;99.90;;;;;;5014723;28;20037;-70
2024/03/08 00:32:01;;;;;;;2.73;1.60;;;9.10;99.90;;;;;;5015262;28;20030;-71
2024/03/08 00:34:27;;;;;;;2.23;1.47;;;9.10;99.90;;;;;;5015216;28;20052;-70
2024/03/08 00:36:53;;;;;;;2.17;1.53;;;9.10;99.90;;;;;;5014447;28;20037;-70
2024/03/08 00:39:21;;;;;;;2.60;1.70;;;9.10;99.90;;;;;;5014979;28;20064;-71
2024/03/08 00:41:47;;;;;;;2.63;1.60;;;9.00;99.90;;;;;;5014888;28;20030;-71
2024/03/08 00:44:13;;;;;;;2.00;1.47;;;9.00;99.90;;;;;;5014737;28;20448;-71
2024/03/08 00:46:39;;;;;;;2.40;1.53;;;9.00;99.90;;;;;;5015585;28;20036;-71
2024/03/08 00:49:06;;;;;;;2.63;1.27;;;9.00;99.90;;;;;;5032869;28;20065;-70
2024/03/08 00:51:32;;;;;;;1.90;1.20;;;9.00;99.90;;;;;;5035082;28;20401;-70
2024/03/08 00:54:32;;;;;;;1.83;1.20;;;9.00;99.90;;;;;;5035158;28;20043;-71
2024/03/08 00:57:07;;;;;;;1.60;1.10;;;9.00;99.90;;;;;;5032353;28;20088;-73
2024/03/08 01:01:04;;;;;;;2.13;1.33;;;9.00;99.90;;;;;;5034811;28;20426;-71
2024/03/08 01:07:24;;;;;;;4.60;1.30;;;9.00;99.90;;;;;;4813797;29;20114;-71
2024/03/08 01:18:24;;;;;;;2.20;1.47;;;8.90;99.90;;;;;;4768485;30;20051;-71
2024/03/08 01:21:02;;;;;;;2.13;1.43;;;8.90;99.90;;;;;;4785866;30;20633;-71
2024/03/08 01:23:39;;;;;;;4.03;1.70;;;8.90;99.90;;;;;;4781337;30;20398;-71
2024/03/08 01:26:05;;;;;;;2.63;1.50;;;8.90;99.90;;;;;;4768716;30;20508;-71
2024/03/08 01:28:31;;;;;;;2.90;1.70;;;8.80;99.90;;;;;;4813763;29;20136;-71
2024/03/08 01:30:57;;;;;;;2.13;1.50;;;8.80;99.90;;;;;;4918822;28;20037;-71
2024/03/08 01:33:25;;;;;;;1.30;1.07;;;8.80;99.90;;;;;;5033563;28;20511;-70
2024/03/08 01:35:52;;;;;;;0.80;0.63;;;8.90;99.90;;;;;;5033495;28;20425;-70
2024/03/08 01:38:18;;;;;;;1.40;0.83;;;8.90;99.90;;;;;;5033851;28;20499;-70
2024/03/08 01:40:44;;;;;;;0.90;0.80;;;8.80;99.90;;;;;;5034136;28;20409;-71
2024/03/08 01:43:21;;;;;;;0.90;0.77;;;8.90;99.90;;;;;;5033577;28;20025;-70
2024/03/08 01:45:47;;;;;;;1.27;0.90;;;8.90;99.90;;;;;;5033435;28;20402;-71
2024/03/08 01:48:14;;;;;;;1.23;0.80;;;8.80;99.90;;;;;;5033480;28;20049;-72
2024/03/08 01:50:41;;;;;;;0.77;0.70;;;8.80;99.90;;;;;;5033371;28;20044;-70
2024/03/08 01:53:09;;;;;;;2.13;0.83;;;8.80;99.90;;;;;;5033234;28;20046;-71
2024/03/08 01:55:37;;;;;;;1.10;0.80;;;8.80;99.90;;;;;;5033409;28;20493;-71
2024/03/08 01:58:05;;;;;;;2.63;0.83;;;8.80;99.90;;;;;;5032006;28;20510;-70
2024/03/08 02:00:33;;;;;;;3.37;0.80;;;8.90;99.90;;;;;;5030607;28;20121;-71
2024/03/08 02:03:00;;;;;;;1.00;0.73;;;8.80;99.90;;;;;;5030552;28;20033;-71
2024/03/08 02:05:26;;;;;;;1.00;0.80;;;8.80;99.90;;;;;;5032236;28;20033;-70
2024/03/08 02:07:51;;;;;;;0.73;0.60;;;8.80;99.90;;;;;;5032421;28;20026;-70
2024/03/08 02:10:18;;;;;;;0.80;0.70;;;8.80;99.90;;;;;;5032514;28;20442;-70
2024/03/08 02:12:44;;;;;;;1.80;0.77;;;8.80;99.90;;;;;;5032245;28;20389;-71
2024/03/08 02:15:10;;;;;;;1.00;0.70;;;8.80;99.90;;;;;;5032992;28;20044;-70
2024/03/08 02:17:36;;;;;;;1.13;0.70;;;8.80;99.90;;;;;;5033054;28;20029;-71
2024/03/08 02:20:03;;;;;;;1.00;0.80;;;8.80;99.90;;;;;;5032629;28;20394;-72
2024/03/08 02:22:30;;;;;;;2.50;2.30;;;8.80;99.90;;;;;;5033197;28;20034;-70
2024/03/08 02:24:57;;;;;;;1.90;1.70;;;8.80;99.90;;;;;;5033600;28;20033;-71
2024/03/08 02:27:26;;;;;;;1.10;0.80;;;8.80;99.90;;;;;;5033319;28;20038;-71
2024/03/08 02:29:59;;;;;;;3.83;3.53;;;8.80;99.90;;;;;;5033010;28;20029;-71
2024/03/08 02:36:26;;;;;;;7.43;6.73;;;8.80;99.90;;;;;;4895392;29;20041;-70
2024/03/08 02:52:41;;;;;;;3.90;3.37;;;8.80;99.90;;;;;;4861087;29;20060;-70
2024/03/08 02:55:30;;;;;;;4.53;3.20;;;8.80;99.90;;;;;;4939780;29;20056;-70
2024/03/08 02:58:37;;;;;;;;;;;;;;;;;;;;;
2024/03/08 03:01:03;;;;;;;2.60;2.27;;;8.70;99.90;;;;;;4939822;29;20042;-70
2024/03/08 03:03:29;;;;;;;2.60;2.13;;;8.70;99.90;;;;;;4939960;29;20564;-71
2024/03/08 03:05:55;;;;;;;3.27;2.57;;;8.70;99.90;;;;;;4964392;28;20055;-71
2024/03/08 03:08:21;;;;;;;2.90;2.47;;;8.70;99.90;;;;;;4980485;28;20117;-71
2024/03/08 03:10:47;;;;;;;3.37;2.43;;;8.70;99.90;;;;;;4980276;28;20531;-70
2024/03/08 03:13:16;;;;;;;4.10;2.87;;;8.70;99.90;;;;;;4979946;28;20043;-71
2024/03/08 03:15:46;;;;;;;3.60;3.07;;;8.70;99.90;;;;;;4980086;28;20030;-70
2024/03/08 03:18:12;;;;;;;3.90;3.20;;;8.70;99.90;;;;;;4979994;28;20394;-70
2024/03/08 03:20:42;;;;;;;4.17;3.30;;;8.70;99.90;;;;;;4979846;28;20042;-71
2024/03/08 03:23:08;;;;;;;4.27;3.13;;;8.70;99.90;;;;;;4980220;28;20491;-70
2024/03/08 03:25:35;;;;;;;4.03;3.30;;;8.70;99.90;;;;;;4979991;28;20514;-70
2024/03/08 03:28:04;;;;;;;4.07;3.37;;;8.70;99.90;;;;;;4980195;28;20041;-71
2024/03/08 03:30:33;;;;;;;3.67;2.90;;;8.70;99.90;;;;;;4980326;28;20113;-70
2024/03/08 03:33:06;;;;;;;3.83;2.83;;;8.60;99.90;;;;;;4980140;28;20088;-72
2024/03/08 03:35:32;;;;;;;5.03;3.47;;;8.60;99.90;;;;;;4979921;28;20038;-70
2024/03/08 03:38:05;;;;;;;4.60;3.77;;;8.60;99.90;;;;;;4962586;28;20042;-71
2024/03/08 03:40:31;;;;;;;;;;;8.60;99.90;;;;;;4980451;28;20054;-70
2024/03/08 03:42:57;;;;;;;5.23;3.57;;;8.60;99.90;;;;;;4980285;28;19960;-71
2024/03/08 03:45:24;;;;;;;4.83;3.90;;;8.60;99.90;;;;;;4980111;28;20399;-71
2024/03/08 03:47:50;;;;;;;5.17;3.90;;;8.60;99.90;;;;;;4988775;28;20042;-70
2024/03/08 03:50:16;;;;;;;4.67;3.73;;;8.60;99.90;;;;;;5001205;28;20505;-70
2024/03/08 03:52:42;;;;;;;5.43;4.03;;;8.50;99.90;;;;;;5017863;28;20061;-71
2024/03/08 03:55:08;;;;;;;4.97;3.77;;;8.50;99.90;;;;;;5015836;28;20081;-70
2024/03/08 03:57:34;;;;;;;5.20;3.83;;;8.50;99.90;;;;;;5015341;28;20044;-71
2024/03/08 04:00:02;;;;;;;7.57;4.57;;;8.50;99.90;;;;;;5015422;28;20037;-71
2024/03/08 04:02:28;;;;;;;6.23;4.57;;;8.50;99.90;;;;;;5016357;28;20038;-70
2024/03/08 04:04:54;;;;;;;4.77;4.23;;;8.60;99.90;;;;;;5016352;28;20113;-71
2024/03/08 04:07:20;;;;;;;6.20;4.67;;;8.50;99.90;;;;;;5016248;28;20081;-70
2024/03/08 04:09:46;;;;;;;6.23;4.37;;;8.60;99.90;;;;;;5026625;28;20038;-70
2024/03/08 04:25:57;;;;;;;7.40;5.90;;;8.50;99.90;;;;;;5035863;28;20120;-70
2024/03/08 04:32:00;;;;;;;9.40;5.30;;;8.50;99.70;;;;;;4860617;29;20036;-70
2024/03/08 04:35:36;;;;;;;10.47;5.60;;;8.40;99.60;;;;;;4934908;29;20075;-73
2024/03/08 04:38:15;;;;;;;7.40;6.07;;;8.40;99.50;;;;;;4860896;29;20044;-72
2024/03/08 04:40:41;;;;;;;6.70;5.33;;;8.40;99.60;;;;;;4935421;29;20074;-71
2024/03/08 04:43:08;;;;;;;8.87;5.50;;;8.40;99.70;;;;;;4919761;29;20469;-70
2024/03/08 04:45:34;;;;;;;6.87;5.27;;;8.40;99.30;;;;;;4975853;28;20148;-71
2024/03/08 04:48:00;;;;;;;8.50;5.67;;;8.40;99.40;;;;;;5034398;28;20128;-70
2024/03/08 04:50:28;;;;;;;10.93;6.13;;;8.40;99.50;;;;;;5034446;28;20033;-70
2024/03/08 04:52:55;;;;;;;6.83;5.40;;;8.40;99.60;;;;;;5034148;28;20117;-70
2024/03/08 04:55:21;;;;;;;8.20;5.70;;;8.40;99.70;;;;;;5033509;28;20034;-71
2024/03/08 04:57:48;;;;;;;7.33;5.67;;;8.40;99.90;;;;;;4999909;28;20405;-71
2024/03/08 05:00:14;;;;;;;9.77;6.30;;;8.30;99.90;;;;;;5033544;28;20389;-71
2024/03/08 05:02:41;;;;;;;9.50;6.13;;;8.30;99.50;;;;;;5033618;28;20521;-71
2024/03/08 05:05:09;;;;;;;9.60;6.47;;;8.30;99.50;;;;;;5033321;28;20507;-70
2024/03/08 05:07:35;;;;;;;9.37;5.97;;;8.30;99.70;;;;;;5033799;28;20399;-71
2024/03/08 05:10:02;;;;;;;10.23;6.77;;;8.30;99.50;;;;;;5033841;28;20120;-71
2024/03/08 05:12:28;;;;;;;9.03;6.50;;;8.30;99.80;;;;;;5034119;28;20474;-71
2024/03/08 05:14:53;;;;;;;9.20;6.53;;;8.30;99.90;;;;;;5034061;28;20099;-71
2024/03/08 05:17:19;;;;;;;8.63;6.80;;;8.30;99.90;;;;;;5034127;28;20136;-71
2024/03/08 05:19:45;;;;;;;8.23;6.40;;;8.20;99.70;;;;;;5034304;28;20029;-71
2024/03/08 05:22:11;;;;;;;10.30;7.43;;;8.30;99.70;;;;;;5033899;28;20045;-71
2024/03/08 05:24:37;;;;;;;14.07;7.63;;;8.30;99.50;;;;;;5033932;28;20041;-71
2024/03/08 05:27:03;;;;;;;12.77;6.73;;;8.30;99.30;;;;;;5033765;28;20034;-71
2024/03/08 05:29:29;;;;;;;12.63;6.90;;;8.30;99.40;;;;;;5033310;28;20036;-71
2024/03/08 05:31:56;;;;;;;9.37;6.80;;;8.30;99.10;;;;;;5033876;28;20037;-71
2024/03/08 05:34:22;;;;;;;12.57;7.13;;;8.30;98.80;;;;;;5033645;28;20046;-70
2024/03/08 05:36:50;;;;;;;10.57;7.00;;;8.30;98.80;;;;;;5033965;28;20378;-71
2024/03/08 05:39:17;;;;;;;12.57;7.60;;;8.30;98.50;;;;;;5034361;28;20385;-71
2024/03/08 05:41:44;;;;;;;17.03;7.87;;;8.30;98.50;;;;;;5034050;28;20037;-71
2024/03/08 05:44:10;;;;;;;14.33;7.57;;;8.30;98.30;;;;;;5034036;28;20401;-70
2024/03/08 05:46:37;;;;;;;10.73;7.63;;;8.30;98.40;;;;;;5033636;28;20393;-71
2024/03/08 05:49:07;;;;;;;11.83;7.03;;;8.30;98.30;;;;;;5033704;28;20049;-71
2024/03/08 05:59:03;;;;;;;11.90;7.60;;;8.20;98.30;;;;;;4951881;29;20046;-71
2024/03/08 06:01:35;;;;;;;13.27;8.23;;;8.20;98.10;;;;;;4950074;29;20582;-71
2024/03/08 06:04:03;;;;;;;10.18;6.82;;;8.20;98.20;;;;;;4952761;29;20411;-71
2024/03/08 06:06:41;;;;;;;14.07;8.33;;;8.20;98.30;;;;;;4952945;29;20089;-71
2024/03/08 06:09:17;;;;;;;11.90;8.00;;;8.20;98.10;;;;;;4952407;29;20035;-71
2024/03/08 06:11:43;;;;;;;9.37;6.90;;;8.20;97.80;;;;;;4982392;28;20030;-71
2024/03/08 06:17:36;;;;;;;9.50;7.17;;;8.20;97.90;;;;;;5032534;28;20035;-71
2024/03/08 06:20:04;;;;;;;12.53;7.07;;;8.20;97.30;;;;;;5033108;28;20405;-71
2024/03/08 06:22:30;;;;;;;10.27;7.33;;;8.20;97.20;;;;;;5033157;28;20256;-72
2024/03/08 06:24:56;;;;;;;10.60;7.87;;;8.20;97.20;;;;;;5032939;28;20444;-71
2024/03/08 06:27:22;;;;;;;11.27;7.20;;;8.20;97.40;;;;;;5032751;28;20390;-71
2024/03/08 06:29:49;;;;;;;12.70;6.90;;;8.20;97.50;;;;;;5032496;28;20033;-71
2024/03/08 06:32:15;;;;;;;11.93;6.97;;;8.20;97.70;;;;;;5032822;28;20026;-71
2024/03/08 06:34:41;;;;;;;10.57;7.43;;;8.20;97.40;;;;;;5032653;28;20049;-71
2024/03/08 06:37:07;;;;;;;9.47;6.87;;;8.20;97.40;;;;;;5032506;28;20176;-72
2024/03/08 06:39:34;;;;;;;11.80;7.40;;;8.10;97.40;;;;;;5032703;28;20112;-71
2024/03/08 06:42:00;;;;;;;11.57;7.47;;;8.10;97.60;;;;;;5032788;28;20552;-73
2024/03/08 06:44:25;;;;;;;9.97;7.20;;;8.10;97.60;;;;;;5033081;28;20033;-72
2024/03/08 06:46:51;;;;;;;11.37;6.90;;;8.10;98.10;;;;;;5032667;28;20103;-72
2024/03/08 06:49:17;;;;;;;12.37;7.37;;;8.20;97.70;;;;;;5032160;28;20049;-72
2024/03/08 06:51:43;;;;;;;9.47;6.63;;;8.20;97.50;;;;;;5032114;28;20046;-73
2024/03/08 06:54:08;;;;;;;10.00;7.07;;;8.20;97.40;;;;;;5031997;28;20068;-73
2024/03/08 06:56:35;;;;;;;9.27;6.37;;;8.20;97.50;;;;;;5031972;28;20026;-74
2024/03/08 06:59:03;;;;;;;9.27;6.50;;;8.20;97.50;;;;;;5032472;28;20034;-71
2024/03/08 07:01:31;;;;;;;11.07;7.63;;;8.20;97.20;;;;;;5035966;28;20474;-75
2024/03/08 07:03:58;;;;;;;9.87;7.27;;;8.20;97.20;;;;;;5032545;28;20030;-75
2024/03/08 07:06:23;;;;;;;9.40;6.97;;;8.20;97.30;;;;;;5032212;28;20029;-74
2024/03/08 07:08:49;;;;;;;10.23;7.40;;;8.30;97.20;;;;;;5032271;28;20083;-73
2024/03/08 07:11:18;;;;;;;11.10;7.50;;;8.30;97.10;;;;;;5031187;28;20025;-75
2024/03/08 07:13:47;;;;;;;14.40;7.20;;;8.40;96.90;;;;;;5030765;28;20056;-75
2024/03/08 07:16:12;;;;;;;13.13;7.63;;;8.30;96.90;;;;;;5031908;28;20090;-73
2024/03/08 07:18:43;;;;;;;9.57;7.10;;;8.40;97.30;;;;;;5032309;28;20059;-75
2024/03/08 07:21:13;;;;;;;11.37;7.30;;;8.40;97.10;;;;;;5031935;28;20037;-74
2024/03/08 07:24:02;;;;;;;14.53;7.10;;;8.40;96.90;;;;;;5032938;28;20064;-73
2024/03/08 07:26:30;;;;;;;10.00;7.03;;;8.40;96.60;;;;;;5032443;28;20033;-74
2024/03/08 07:29:52;;;;;;;11.23;7.47;;;8.40;96.70;;;;;;5034806;28;20432;-74
2024/03/08 07:32:29;;;;;;;11.63;7.00;;;8.40;96.60;;;;;;4933907;29;20109;-71
2024/03/08 07:34:58;;;;;;;9.97;7.27;;;8.40;96.60;;;;;;4932850;29;20084;-73
2024/03/08 07:37:24;;;;;;;9.67;7.07;;;8.40;96.90;;;;;;5002276;28;20033;-72
2024/03/08 07:39:50;;;;;;;10.57;7.57;;;8.40;97.10;;;;;;5034405;28;20136;-73
2024/03/08 07:42:17;;;;;;;12.70;7.57;;;8.40;97.20;;;;;;5035786;28;20371;-72
2024/03/08 07:44:43;;;;;;;12.53;7.27;;;8.40;97.30;;;;;;5035624;28;20045;-72
2024/03/08 07:47:09;;;;;;;12.93;7.57;;;8.40;97.30;;;;;;5035027;28;20040;-72
2024/03/08 07:52:52;;;;;;;11.37;7.27;;;8.40;97.10;;;;;;5010047;28;20084;-72
2024/03/08 07:55:18;;;;;;;11.90;7.20;;;8.40;97.10;;;;;;5013546;28;20050;-72
2024/03/08 07:57:44;;;;;;;9.13;6.67;;;8.50;97.10;;;;;;5011440;28;20140;-72
2024/03/08 08:00:15;;;;;;;9.83;7.23;;;8.40;97.00;;;;;;5013137;28;20663;-72
2024/03/08 08:02:45;;;;;;;13.93;7.03;;;8.50;97.00;;;;;;5015492;28;20034;-74
2024/03/08 08:05:11;;;;;;;9.77;6.90;;;8.50;97.20;;;;;;5015724;28;20041;-72
2024/03/08 08:07:37;;;;;;;10.67;6.57;;;8.50;97.30;;;;;;5015670;28;20446;-72
2024/03/08 08:10:03;;;;;;;9.80;7.07;;;8.50;97.30;;;;;;5015287;28;20113;-71
2024/03/08 08:12:29;;;;;;;10.43;7.50;;;8.50;97.20;;;;;;5013974;28;20034;-71
2024/03/08 08:14:54;;;;;;;12.27;7.20;;;8.60;97.30;;;;;;5015100;28;20037;-72
2024/03/08 08:17:20;;;;;;;14.27;7.40;;;8.60;97.20;;;;;;5015024;28;20037;-73
2024/03/08 08:19:46;;;;;;;9.20;6.83;;;8.60;97.20;;;;;;5015714;28;20030;-73
2024/03/08 08:22:12;;;;;;;11.17;6.70;;;8.60;97.10;;;;;;5015384;28;20034;-72
2024/03/08 08:24:37;;;;;;;8.93;6.27;;;8.60;97.30;;;;;;5015090;28;20041;-73
2024/03/08 08:27:04;;;;;;;11.03;6.40;;;8.70;97.20;;;;;;5014766;28;20078;-72
2024/03/08 08:29:30;;;;;;;9.57;6.27;;;8.70;96.60;;;;;;5012510;28;20030;-74
2024/03/08 08:31:59;;;;;;;8.33;6.10;;;8.70;96.50;;;;;;5012411;28;20038;-71
2024/03/08 08:34:26;;;;;;;7.97;6.20;;;8.70;96.30;;;;;;5015041;28;20046;-72
2024/03/08 08:36:52;;;;;;;8.70;6.27;;;8.70;96.20;;;;;;5015161;28;20033;-74
2024/03/08 08:39:18;;;;;;;8.47;6.10;;;8.80;96.60;;;;;;5014193;28;20029;-71
2024/03/08 08:41:44;;;;;;;10.97;6.53;;;8.70;96.40;;;;;;5014897;28;20121;-72
2024/03/08 08:44:12;;;;;;;10.87;6.37;;;8.80;96.40;;;;;;5014573;28;20038;-72
2024/03/08 08:46:38;;;;;;;10.83;6.43;;;8.80;96.30;;;;;;5014644;28;20030;-72
2024/03/08 08:49:06;;;;;;;9.70;6.50;;;8.80;96.40;;;;;;5024878;28;20041;-72
2024/03/08 08:51:33;;;;;;;8.93;6.10;;;8.80;96.30;;;;;;5034842;28;20084;-72
2024/03/08 08:53:59;;;;;;;8.90;6.43;;;8.90;96.10;;;;;;5035259;28;20425;-73
2024/03/08 08:56:25;;;;;;;7.97;6.03;;;8.90;96.10;;;;;;5017355;28;20456;-73
2024/03/08 08:58:53;;;;;;;9.33;6.00;;;8.90;96.40;;;;;;5034715;28;20059;-74
2024/03/08 09:01:20;;;;;;;7.47;5.60;;;8.90;96.20;;;;;;5035040;28;20033;-74
2024/03/08 09:18:41;;;;;;;8.97;5.87;;;8.90;95.70;;;;;;4840747;29;20077;-74
2024/03/08 09:24:45;;;;;;;7.87;5.73;;;8.90;95.40;;;;;;4730655;30;20060;-71
2024/03/08 09:27:14;;;;;;;8.07;5.90;;;8.90;95.50;;;;;;4800519;29;20051;-72
2024/03/08 09:29:52;;;;;;;10.83;5.83;;;8.90;95.30;;;;;;4857035;29;20155;-74
2024/03/08 09:32:18;;;;;;;6.60;5.33;;;8.80;95.50;;;;;;4895979;29;20452;-73
2024/03/08 09:34:44;;;;;;;8.53;5.60;;;8.80;95.80;;;;;;4931932;29;20043;-74
2024/03/08 09:37:10;;;;;;;9.87;6.17;;;8.80;96.20;;;;;;4952335;29;20067;-73
2024/03/08 09:39:36;;;;;;;8.63;6.13;;;8.80;96.00;;;;;;5033921;28;20112;-74
2024/03/08 09:42:02;;;;;;;8.10;6.47;;;8.80;96.10;;;;;;5033542;28;20036;-74
2024/03/08 09:44:31;;;;;;;9.07;6.60;;;8.80;96.30;;;;;;5033368;28;20030;-74
2024/03/08 09:46:59;;;;;;;9.00;5.97;;;8.80;96.30;;;;;;5033441;28;20037;-74
2024/03/08 09:49:24;;;;;;;9.40;6.60;;;8.90;96.00;;;;;;5012315;28;20446;-74
2024/03/08 09:51:51;;;;;;;8.10;5.83;;;8.90;95.70;;;;;;5013810;28;20088;-74
2024/03/08 09:54:20;;;;;;;9.57;6.17;;;8.90;95.20;;;;;;5013700;28;20049;-74
2024/03/08 09:56:48;;;;;;;7.93;6.07;;;8.90;95.60;;;;;;5013605;28;20022;-73
2024/03/08 10:01:46;;;;;;;8.67;6.57;;;8.90;95.90;;;;;;5013766;28;20470;-74
2024/03/08 10:04:13;;;;;;;9.90;7.10;;;9.00;96.10;;;;;;5013539;28;20038;-73
2024/03/08 10:06:40;;;;;;;9.00;6.67;;;9.00;96.40;;;;;;5012503;28;20482;-74
2024/03/08 10:09:08;;;;;;;10.90;6.50;;;9.00;96.50;;;;;;5013183;28;20030;-74
2024/03/08 10:11:34;;;;;;;8.50;6.17;;;9.00;96.60;;;;;;5013399;28;20030;-73
2024/03/08 10:14:01;;;;;;;9.10;6.63;;;9.00;96.70;;;;;;5013270;28;20038;-73
2024/03/08 10:16:30;;;;;;;13.53;7.00;;;9.00;96.90;;;;;;5013637;28;20038;-73
2024/03/08 10:19:00;;;;;;;10.67;6.60;;;9.10;97.00;;;;;;5013277;28;20038;-73
2024/03/08 10:21:27;;;;;;;8.80;5.90;;;9.10;97.00;;;;;;5013331;28;20454;-74
2024/03/08 10:23:53;;;;;;;9.40;5.97;;;9.20;97.30;;;;;;5012016;28;20120;-74
2024/03/08 10:26:21;;;;;;;8.77;6.33;;;9.20;97.20;;;;;;5013170;28;20034;-71
2024/03/08 10:28:48;;;;;;;8.73;6.30;;;9.20;97.10;;;;;;5013166;28;20041;-72
2024/03/08 10:31:16;;;;;;;7.80;5.73;;;9.20;96.80;;;;;;5013006;28;20036;-73
2024/03/08 10:33:41;;;;;;;9.43;6.77;;;9.20;96.80;;;;;;5013406;28;20042;-71
2024/03/08 10:36:11;;;;;;;9.13;6.97;;;9.30;97.00;;;;;;5013621;28;20061;-73
2024/03/08 10:38:41;;;;;;;7.73;5.67;;;9.30;97.20;;;;;;5012044;28;20133;-72
2024/03/08 10:41:14;;;;;;;6.87;5.73;;;9.30;97.20;;;;;;5013326;28;20030;-73
2024/03/08 10:48:03;;;;;;;11.63;7.80;;;9.30;97.60;;;;;;5014105;28;20040;-73
2024/03/08 10:50:38;;;;;;;9.73;6.80;;;9.40;97.90;;;;;;4951683;28;20055;-73
2024/03/08 10:53:59;;;;;;;;;;;;;;;;;;;;;
2024/03/08 10:57:13;;;;;;;9.20;5.47;;;9.40;97.60;;;;;;4926008;28;20043;-73
2024/03/08 11:00:26;;;;;;;8.00;6.22;;;9.40;97.20;;;;;;4952733;28;20035;-73
2024/03/08 11:03:04;;;;;;;10.52;6.25;;;9.30;96.90;;;;;;5013201;28;20038;-73
2024/03/08 11:09:38;;;;;;;7.63;5.57;;;9.30;96.90;;;;;;4940204;28;20620;-73
2024/03/08 11:12:26;;;;;;;8.90;6.40;;;9.30;96.90;;;;;;5017050;28;20030;-72
2024/03/08 11:15:11;;;;;;;9.90;6.37;;;9.30;97.20;;;;;;5015652;28;20053;-73
2024/03/08 11:17:38;;;;;;;10.07;6.43;;;9.30;97.70;;;;;;5016815;28;20034;-73
2024/03/08 11:20:15;;;;;;;8.40;6.70;;;9.20;98.20;;;;;;5016766;28;20394;-73
2024/03/08 11:22:47;;;;;;;8.33;5.87;;;9.20;98.50;;;;;;5016636;28;20030;-73
2024/03/08 11:25:42;;;;;;;8.43;6.57;;;9.20;98.60;;;;;;5016304;28;20440;-73
2024/03/08 11:28:23;;;;;;;10.20;6.30;;;9.30;98.80;;;;;;5016633;28;20057;-73
2024/03/08 11:31:01;;;;;;;12.60;6.27;;;9.30;99.10;;;;;;5016525;28;20402;-72
2024/03/08 11:33:31;;;;;;;8.30;5.93;;;9.20;99.10;;;;;;5016142;28;20045;-71
2024/03/08 11:36:04;;;;;;;9.17;5.70;;;9.20;99.20;;;;;;5014517;28;20545;-72
2024/03/08 11:38:33;;;;;;;7.50;6.23;;;9.20;99.20;;;;;;5016257;28;20440;-73
2024/03/08 11:40:59;;;;;;;8.37;6.50;;;9.20;99.20;;;;;;5015257;28;20030;-75
2024/03/08 11:43:24;;;;;;;9.73;6.73;;;9.20;99.90;;;;;;5016010;28;20105;-72
2024/03/08 11:45:50;;;;;;;8.77;5.93;;;9.20;99.90;;;;;;5015900;28;20038;-73
2024/03/08 11:48:16;;;;;;;8.23;6.17;;;9.20;99.90;;;;;;5019851;28;20034;-73
2024/03/08 11:50:43;;;;;;;8.60;6.50;;;9.20;99.90;;;;;;5035064;28;20037;-71
2024/03/08 11:53:09;;;;;;;7.77;6.03;;;9.30;99.90;;;;;;5033612;28;20029;-73
2024/03/08 11:55:35;;;;;;;8.77;6.00;;;9.30;99.80;;;;;;5033544;28;20041;-71
2024/03/08 11:58:03;;;;;;;7.83;5.60;;;9.30;99.90;;;;;;5033594;28;20412;-71
2024/03/08 12:00:35;;;;;;;7.47;5.63;;;9.30;99.80;;;;;;5033474;28;20037;-71
2024/03/08 12:03:04;;;;;;;12.93;6.07;;;9.30;99.40;;;;;;5033759;28;20024;-71
2024/03/08 12:05:31;;;;;;;7.07;5.57;;;9.30;99.60;;;;;;5015788;28;20047;-71
2024/03/08 12:08:00;;;;;;;8.37;5.50;;;9.30;99.30;;;;;;5035236;28;20497;-71
2024/03/08 12:10:27;;;;;;;8.83;6.37;;;9.30;99.50;;;;;;5035815;28;20037;-73
2024/03/08 12:12:55;;;;;;;7.83;6.03;;;9.20;99.90;;;;;;5034515;28;20049;-73
2024/03/08 12:15:23;;;;;;;8.27;6.47;;;9.20;99.90;;;;;;5032037;28;20508;-71
2024/03/08 12:17:51;;;;;;;11.20;6.60;;;9.20;99.90;;;;;;5034002;28;20080;-73
2024/03/08 12:20:21;;;;;;;8.30;6.10;;;9.20;99.90;;;;;;5035817;28;20041;-73
2024/03/08 12:27:05;;;;;;;8.53;6.33;;;9.10;99.90;;;;;;5035704;28;20095;-72
2024/03/08 12:33:44;;;;;;;8.50;6.60;;;9.20;99.90;;;;;;5035783;28;20090;-73
2024/03/08 12:47:33;;;;;;;8.27;6.47;;;9.30;99.90;;;;;;4877962;29;20131;-72
2024/03/08 12:50:00;;;;;;;9.17;6.80;;;9.30;99.90;;;;;;4893456;29;20534;-72
2024/03/08 12:52:25;;;;;;;9.10;6.70;;;9.30;99.90;;;;;;5012811;28;20432;-73
2024/03/08 12:54:51;;;;;;;8.67;6.93;;;9.40;99.90;;;;;;5034208;28;20045;-72
2024/03/08 12:57:17;;;;;;;10.17;7.03;;;9.30;99.90;;;;;;5034679;28;20034;-73
2024/03/08 12:59:43;;;;;;;8.20;6.80;;;9.40;99.90;;;;;;5034169;28;20034;-71
2024/03/08 13:02:11;;;;;;;8.77;6.83;;;9.40;99.90;;;;;;5034324;28;20064;-72
2024/03/08 13:04:37;;;;;;;11.23;6.33;;;9.40;99.90;;;;;;5034390;28;20037;-72
2024/03/08 13:07:03;;;;;;;8.40;6.30;;;9.40;99.90;;;;;;5034412;28;20126;-72
2024/03/08 13:09:29;;;;;;;7.80;5.77;;;9.40;99.90;;;;;;5034392;28;20037;-72
2024/03/08 13:11:55;;;;;;;8.20;6.03;;;9.50;99.90;;;;;;5034148;28;20027;-71
2024/03/08 13:14:21;;;;;;;7.87;5.80;;;9.50;99.90;;;;;;5034025;28;20493;-71
2024/03/08 13:16:48;;;;;;;8.10;6.07;;;9.50;99.90;;;;;;5034135;28;20025;-72
2024/03/08 13:19:14;;;;;;;8.93;5.83;;;9.50;99.90;;;;;;5034209;28;20477;-72
2024/03/08 13:21:39;;;;;;;9.20;6.10;;;9.40;99.90;;;;;;5014264;28;20386;-73
2024/03/08 13:24:05;;;;;;;7.00;5.40;;;9.40;99.90;;;;;;5030881;28;20041;-72
2024/03/08 13:26:33;;;;;;;5.60;4.23;;;9.40;99.90;;;;;;5031151;28;20036;-71
2024/03/08 13:28:59;;;;;;;6.67;4.50;;;9.40;99.90;;;;;;5033789;28;20037;-73
2024/03/08 13:31:25;;;;;;;5.10;4.47;;;9.40;99.90;;;;;;5033976;28;20033;-72
2024/03/08 13:33:57;;;;;;;5.47;4.40;;;9.30;99.90;;;;;;5033443;28;20041;-73
2024/03/08 13:36:28;;;;;;;5.57;4.43;;;9.30;99.90;;;;;;5032614;28;20555;-73
2024/03/08 13:38:54;;;;;;;7.60;4.80;;;9.30;99.90;;;;;;5033659;28;20504;-73
2024/03/08 13:41:24;;;;;;;6.60;5.30;;;9.30;99.90;;;;;;5033501;28;20033;-74
2024/03/08 13:43:50;;;;;;;5.97;4.93;;;9.30;99.90;;;;;;5033439;28;20037;-73
2024/03/08 13:46:16;;;;;;;7.13;5.13;;;9.30;99.90;;;;;;5033404;28;20071;-73
2024/03/08 13:48:43;;;;;;;10.73;5.53;;;9.30;99.90;;;;;;5033509;28;20080;-73
2024/03/08 13:51:15;;;;;;;6.97;5.07;;;9.30;99.90;;;;;;5016236;28;20034;-74
2024/03/08 13:53:41;;;;;;;7.03;5.07;;;9.20;99.90;;;;;;5034068;28;20052;-74
2024/03/08 13:56:10;;;;;;;7.27;5.20;;;9.30;99.90;;;;;;5033991;28;20025;-70
2024/03/08 13:58:57;;;;;;;7.43;5.67;;;9.20;99.90;;;;;;5033763;28;20033;-73
2024/03/08 14:01:57;;;;;;;6.87;4.67;;;9.20;99.90;;;;;;5034062;28;20029;-72
2024/03/08 14:05:09;;;;;;;9.97;5.60;;;9.20;99.90;;;;;;5032979;28;20033;-72
2024/03/08 14:12:03;;;;;;;7.53;5.33;;;9.20;99.90;;;;;;4856442;29;20667;-73
2024/03/08 14:14:37;;;;;;;7.57;5.87;;;9.20;99.90;;;;;;4914559;29;20044;-72
2024/03/08 14:18:15;;;;;;;7.10;5.47;;;9.10;99.90;;;;;;4915406;29;20115;-72
2024/03/08 14:24:12;;;;;;;9.63;5.60;;;9.10;99.90;;;;;;4915026;29;20035;-72
2024/03/08 14:26:38;;;;;;;8.03;5.80;;;9.10;99.90;;;;;;4930108;29;20412;-72
2024/03/08 14:29:07;;;;;;;6.87;5.17;;;9.10;99.90;;;;;;4967954;28;20082;-72
2024/03/08 14:31:33;;;;;;;9.60;4.97;;;9.10;99.90;;;;;;5007165;28;20409;-72
2024/03/08 14:33:59;;;;;;;6.97;5.00;;;9.10;99.90;;;;;;5032617;28;20123;-72
2024/03/08 14:36:26;;;;;;;9.03;5.63;;;9.10;99.90;;;;;;5032568;28;20485;-72
2024/03/08 14:38:52;;;;;;;7.10;5.77;;;9.10;99.90;;;;;;5032862;28;20112;-72
2024/03/08 14:41:18;;;;;;;7.23;5.60;;;9.10;99.90;;;;;;5032876;28;20034;-73
2024/03/08 14:43:47;;;;;;;8.17;5.23;;;9.10;99.90;;;;;;5032823;28;20040;-72
2024/03/08 14:46:23;;;;;;;6.33;4.50;;;9.20;99.90;;;;;;5032946;28;20039;-72
2024/03/08 14:48:51;;;;;;;6.77;4.30;;;9.20;99.90;;;;;;5032813;28;20139;-72
2024/03/08 14:51:21;;;;;;;9.17;4.50;;;9.10;99.90;;;;;;5033012;28;20108;-72
2024/03/08 14:53:49;;;;;;;5.93;4.13;;;9.20;99.90;;;;;;5032910;28;20128;-72
2024/03/08 14:56:16;;;;;;;5.77;4.40;;;9.10;99.90;;;;;;5032437;28;20033;-73
2024/03/08 14:58:46;;;;;;;6.47;4.60;;;9.10;99.90;;;;;;5032701;28;20042;-72
2024/03/08 15:01:15;;;;;;;7.47;5.00;;;9.20;99.90;;;;;;5032601;28;20462;-72
2024/03/08 15:03:45;;;;;;;8.60;5.10;;;9.10;99.90;;;;;;5014726;28;20037;-72
2024/03/08 15:06:10;;;;;;;22.70;5.73;;;9.10;99.90;;;;;;5032167;28;20113;-72
2024/03/08 15:08:37;;;;;;;7.37;5.60;;;9.10;99.90;;;;;;5032651;28;20038;-72